createdAt,value
2023-03-24T00:02:29.668Z,13.45
2023-03-24T00:05:22.547Z,15.57
2023-03-24T00:08:10.585Z,18.40
2023-03-24T00:11:03.591Z,22.73
2023-03-24T00:13:51.354Z,22.02
2023-03-24T00:16:42.935Z,17.63
2023-03-24T00:19:30.837Z,14.30
2023-03-24T00:22:21.566Z,12.48
2023-03-24T00:25:11.362Z,13.25
2023-03-24T00:28:03.282Z,13.98
2023-03-24T00:30:52.415Z,12.45
2023-03-24T00:33:40.781Z,12.05
2023-03-24T00:36:29.749Z,11.63
2023-03-24T00:39:20.975Z,10.55
2023-03-24T00:42:09.363Z,14.02
2023-03-24T00:44:57.069Z,12.95
2023-03-24T00:47:45.081Z,12.55
2023-03-24T00:50:33.821Z,11.73
2023-03-24T00:53:23.528Z,12.27
2023-03-24T00:56:12.013Z,10.45
2023-03-24T00:59:02.581Z,11.20
2023-03-24T01:01:50.398Z,11.70
2023-03-24T01:04:41.412Z,12.77
2023-03-24T01:07:32.819Z,14.93
2023-03-24T01:10:26.503Z,19.25
2023-03-24T01:13:14.696Z,17.23
2023-03-24T01:16:03.456Z,14.45
2023-03-24T01:18:52.885Z,11.88
2023-03-24T01:21:42.579Z,11.43
2023-03-24T01:24:31.482Z,11.50
2023-03-24T01:27:19.349Z,11.68
2023-03-24T01:30:08.244Z,11.90
2023-03-24T01:32:56.668Z,11.35
2023-03-24T01:35:44.573Z,11.27
2023-03-24T01:38:32.482Z,13.32
2023-03-24T01:41:20.330Z,13.57
2023-03-24T01:44:34.616Z,14.20
2023-03-24T01:47:22.391Z,38.72
2023-03-24T01:50:10.276Z,55.70
2023-03-24T01:52:58.876Z,17.85
2023-03-24T01:55:48.536Z,10.05
2023-03-24T01:58:46.152Z,9.80
2023-03-24T02:01:46.205Z,8.75
2023-03-24T02:05:01.923Z,9.57
2023-03-24T02:08:16.965Z,8.20
2023-03-24T02:11:05.005Z,10.38
2023-03-24T02:14:02.264Z,5.65
2023-03-24T02:16:58.785Z,5.93
2023-03-24T02:20:26.060Z,6.72
2023-03-24T02:23:22.522Z,6.82
2023-03-24T02:26:25.240Z,6.18
2023-03-24T02:29:40.918Z,7.03
2023-03-24T02:32:58.462Z,7.68
2023-03-24T02:36:23.777Z,9.60
2023-03-24T02:39:49.007Z,7.45
2023-03-24T02:42:57.325Z,6.95
2023-03-24T02:45:50.942Z,7.82
2023-03-24T02:49:05.229Z,6.00
2023-03-24T02:52:12.977Z,6.22
2023-03-24T02:55:12.740Z,4.78
2023-03-24T02:59:08.364Z,5.85
2023-03-24T03:02:08.664Z,4.60
2023-03-24T03:05:14.100Z,5.07
2023-03-24T03:08:05.090Z,4.97
2023-03-24T03:10:54.899Z,5.28
2023-03-24T03:13:54.558Z,3.78
2023-03-24T03:17:00.219Z,4.75
2023-03-24T03:19:55.797Z,5.13
2023-03-24T03:23:12.023Z,5.68
2023-03-24T03:26:04.858Z,4.53
2023-03-24T03:28:58.350Z,4.68
2023-03-24T03:31:59.932Z,5.20
2023-03-24T03:35:19.609Z,5.93
2023-03-24T03:38:37.375Z,6.22
2023-03-24T03:41:25.249Z,6.28
2023-03-24T03:44:12.973Z,6.35
2023-03-24T03:47:01.343Z,5.82
2023-03-24T03:49:59.331Z,6.07
2023-03-24T03:52:47.057Z,8.10
2023-03-24T03:55:35.761Z,7.05
2023-03-24T03:58:24.852Z,6.50
2023-03-24T04:01:20.362Z,7.18
2023-03-24T04:05:07.932Z,8.20
2023-03-24T04:08:31.805Z,7.55
2023-03-24T04:11:46.523Z,7.22
2023-03-24T04:15:12.113Z,7.28
2023-03-24T04:18:45.859Z,7.53
2023-03-24T04:21:48.889Z,8.45
2023-03-24T04:24:57.402Z,8.40
2023-03-24T04:28:03.808Z,9.25
2023-03-24T04:31:30.335Z,10.80
2023-03-24T04:34:26.348Z,11.70
2023-03-24T04:37:19.816Z,13.38
2023-03-24T04:40:24.509Z,14.82
2023-03-24T04:43:20.484Z,16.98
2023-03-24T04:46:09.675Z,15.85
2023-03-24T04:49:12.142Z,14.48
2023-03-24T04:52:00.777Z,9.88
2023-03-24T04:54:55.468Z,10.18
2023-03-24T04:57:43.590Z,8.98
2023-03-24T05:00:33.796Z,16.70
2023-03-24T05:03:21.735Z,26.83
2023-03-24T05:06:13.202Z,22.45
2023-03-24T05:09:01.006Z,20.27
2023-03-24T05:11:51.333Z,12.18
2023-03-24T05:14:40.122Z,10.25
2023-03-24T05:17:28.347Z,10.65
2023-03-24T05:20:16.838Z,13.13
2023-03-24T05:23:09.371Z,12.40
2023-03-24T05:25:57.210Z,9.88
2023-03-24T05:28:46.822Z,8.43
2023-03-24T05:31:34.666Z,8.32
2023-03-24T05:34:35.021Z,9.02
2023-03-24T05:37:34.602Z,7.70
2023-03-24T05:40:23.841Z,8.60
2023-03-24T05:43:37.947Z,10.10
2023-03-24T05:46:34.333Z,11.23
2023-03-24T05:49:24.619Z,11.57
2023-03-24T05:52:16.532Z,12.07
2023-03-24T05:55:07.828Z,11.05
2023-03-24T05:57:56.926Z,11.02
2023-03-24T06:01:10.727Z,10.68
2023-03-24T06:03:59.996Z,10.43
2023-03-24T06:06:47.824Z,13.13
2023-03-24T06:12:34.449Z,9.77
2023-03-24T06:15:28.190Z,11.07
2023-03-24T06:18:24.448Z,12.25
2023-03-24T06:21:12.257Z,11.32
2023-03-24T06:24:03.471Z,11.90
2023-03-24T06:26:52.760Z,11.55
2023-03-24T06:29:44.249Z,11.20
2023-03-24T06:32:33.877Z,13.27
2023-03-24T06:35:21.665Z,12.27
2023-03-24T06:38:19.086Z,12.07
2023-03-24T06:41:07.248Z,11.30
2023-03-24T06:43:55.660Z,10.52
2023-03-24T06:46:43.797Z,10.57
2023-03-24T06:49:32.393Z,8.80
2023-03-24T06:52:20.136Z,7.43
2023-03-24T06:55:08.579Z,7.20
2023-03-24T06:57:56.446Z,6.55
2023-03-24T07:01:17.402Z,6.15
2023-03-24T07:04:17.392Z,6.53
2023-03-24T07:08:06.615Z,6.63
2023-03-24T07:10:54.225Z,6.20
2023-03-24T07:13:42.176Z,5.45
2023-03-24T07:16:34.337Z,6.28
2023-03-24T07:19:41.940Z,6.47
2023-03-24T07:22:49.875Z,6.70
2023-03-24T07:25:54.799Z,6.97
2023-03-24T07:29:02.717Z,6.47
2023-03-24T07:31:59.036Z,5.65
2023-03-24T07:34:48.513Z,5.30
2023-03-24T07:37:37.890Z,6.15
2023-03-24T07:40:25.952Z,6.22
2023-03-24T07:43:13.722Z,5.65
2023-03-24T07:46:17.364Z,5.88
2023-03-24T07:49:18.111Z,5.70
2023-03-24T07:52:14.348Z,6.22
2023-03-24T07:55:07.213Z,6.53
2023-03-24T07:58:18.776Z,5.47
2023-03-24T08:01:21.833Z,6.10
2023-03-24T08:04:14.410Z,5.70
2023-03-24T08:07:20.278Z,7.32
2023-03-24T08:10:09.369Z,5.78
2023-03-24T08:13:00.793Z,5.20
2023-03-24T08:15:49.228Z,5.18
2023-03-24T08:18:36.949Z,5.55
2023-03-24T08:21:25.968Z,5.07
2023-03-24T08:24:13.723Z,4.88
2023-03-24T08:27:06.592Z,5.57
2023-03-24T08:29:54.415Z,5.07
2023-03-24T08:32:47.817Z,5.82
2023-03-24T08:35:39.394Z,5.20
2023-03-24T08:38:31.956Z,5.47
2023-03-24T08:41:19.911Z,4.88
2023-03-24T08:44:07.875Z,4.50
2023-03-24T08:46:55.596Z,4.80
2023-03-24T08:49:43.341Z,6.07
2023-03-24T08:52:30.982Z,7.25
2023-03-24T08:55:20.000Z,6.40
2023-03-24T08:58:08.638Z,5.85
2023-03-24T09:00:56.418Z,7.97
2023-03-24T09:03:44.990Z,7.28
2023-03-24T09:06:33.053Z,8.30
2023-03-24T09:09:20.932Z,7.13
2023-03-24T09:12:10.999Z,7.93
2023-03-24T09:14:59.007Z,6.75
2023-03-24T09:17:48.193Z,6.82
2023-03-24T09:20:36.346Z,6.25
2023-03-24T09:23:24.293Z,6.72
2023-03-24T09:26:12.055Z,6.55
2023-03-24T09:29:00.268Z,6.30
2023-03-24T09:31:47.960Z,4.82
2023-03-24T09:34:38.504Z,4.80
2023-03-24T09:37:30.011Z,4.55
2023-03-24T09:40:29.341Z,3.90
2023-03-24T09:43:38.967Z,3.90
2023-03-24T09:46:37.543Z,4.45
2023-03-24T09:49:30.750Z,3.47
2023-03-24T09:52:25.290Z,4.05
2023-03-24T09:55:19.783Z,3.42
2023-03-24T09:58:09.352Z,4.35
2023-03-24T10:00:57.675Z,3.90
2023-03-24T10:03:47.195Z,4.32
2023-03-24T10:06:42.425Z,3.70
2023-03-24T10:09:33.934Z,3.42
2023-03-24T10:12:50.684Z,3.78
2023-03-24T10:15:47.768Z,3.47
2023-03-24T10:18:44.219Z,3.75
2023-03-24T10:21:36.583Z,3.05
2023-03-24T10:24:44.859Z,2.70
2023-03-24T10:27:42.674Z,2.42
2023-03-24T10:30:34.475Z,2.92
2023-03-24T10:33:22.079Z,2.78
2023-03-24T10:36:21.298Z,3.08
2023-03-24T10:39:19.949Z,3.40
2023-03-24T10:42:18.786Z,2.40
2023-03-24T10:45:12.002Z,2.10
2023-03-24T10:48:01.939Z,2.40
2023-03-24T10:50:49.845Z,2.10
2023-03-24T10:53:37.799Z,1.90
2023-03-24T10:56:40.697Z,1.98
2023-03-24T10:59:57.981Z,1.30
2023-03-24T11:03:07.571Z,1.40
2023-03-24T11:06:01.575Z,1.38
2023-03-24T11:09:11.936Z,0.98
2023-03-24T11:12:04.400Z,1.30
2023-03-24T11:14:54.408Z,1.70
2023-03-24T11:17:42.733Z,1.27
2023-03-24T11:20:36.736Z,0.93
2023-03-24T11:23:32.061Z,0.93
2023-03-24T11:26:23.505Z,1.02
2023-03-24T11:29:18.648Z,1.45
2023-03-24T11:32:16.811Z,0.85
2023-03-24T11:35:17.988Z,1.20
2023-03-24T11:38:08.204Z,1.98
2023-03-24T11:41:05.566Z,1.40
2023-03-24T11:44:17.639Z,1.23
2023-03-24T11:50:19.141Z,1.63
2023-03-24T11:53:20.197Z,1.52
2023-03-24T11:56:37.888Z,1.53
2023-03-24T11:59:44.119Z,1.48
2023-03-24T12:02:43.758Z,1.27
2023-03-24T12:05:42.534Z,1.17
2023-03-24T12:08:47.339Z,0.98
2023-03-24T12:11:53.624Z,0.95
2023-03-24T12:14:48.748Z,1.08
2023-03-24T12:17:42.728Z,1.00
2023-03-24T12:21:04.906Z,1.45
2023-03-24T12:24:31.437Z,1.02
2023-03-24T12:27:52.681Z,0.73
2023-03-24T12:31:17.391Z,0.77
2023-03-24T12:34:42.782Z,1.30
2023-03-24T12:37:39.348Z,1.45
2023-03-24T12:40:47.770Z,1.05
2023-03-24T12:43:53.491Z,0.65
2023-03-24T12:47:00.995Z,0.98
2023-03-24T12:50:00.505Z,0.63
2023-03-24T12:53:06.787Z,1.00
2023-03-24T12:56:14.474Z,0.50
2023-03-24T12:59:04.290Z,0.55
2023-03-24T13:02:13.284Z,0.25
2023-03-24T13:05:07.761Z,0.70
2023-03-24T13:07:59.425Z,0.60
2023-03-24T13:10:48.851Z,0.50
2023-03-24T13:13:44.801Z,0.57
2023-03-24T13:16:37.115Z,0.50
2023-03-24T13:19:26.288Z,0.43
2023-03-24T13:22:18.705Z,0.57
2023-03-24T13:25:22.806Z,0.47
2023-03-24T13:28:18.625Z,0.40
2023-03-24T13:31:09.792Z,0.52
2023-03-24T13:34:01.057Z,0.60
2023-03-24T13:37:00.410Z,0.47
2023-03-24T13:39:58.355Z,0.70
2023-03-24T13:43:07.176Z,0.50
2023-03-24T13:46:07.815Z,0.43
2023-03-24T13:48:57.442Z,0.52
2023-03-24T13:51:47.030Z,0.43
2023-03-24T13:54:37.974Z,0.40
2023-03-24T13:57:26.857Z,0.57
2023-03-24T14:00:21.578Z,0.85
2023-03-24T14:03:31.653Z,0.50
2023-03-24T14:06:45.556Z,0.40
2023-03-24T14:09:33.591Z,0.73
2023-03-24T14:12:21.566Z,0.70
2023-03-24T14:15:14.318Z,0.32
2023-03-24T14:18:25.325Z,0.80
2023-03-24T14:21:13.580Z,0.98
2023-03-24T14:24:04.366Z,0.60
2023-03-24T14:26:52.951Z,0.50
2023-03-24T14:29:52.680Z,0.80
2023-03-24T14:32:50.286Z,0.55
2023-03-24T14:36:06.705Z,0.47
2023-03-24T14:38:54.543Z,0.20
2023-03-24T14:41:44.531Z,0.60
2023-03-24T14:44:56.848Z,0.63
2023-03-24T14:47:45.541Z,0.60
2023-03-24T14:50:34.764Z,0.50
2023-03-24T14:53:23.660Z,0.85
2023-03-24T14:56:16.698Z,0.95
2023-03-24T14:59:17.565Z,2.33
2023-03-24T15:02:33.462Z,2.38
2023-03-24T15:05:32.662Z,1.33
2023-03-24T15:08:22.659Z,0.90
2023-03-24T15:11:11.841Z,1.95
2023-03-24T15:14:02.597Z,2.00
2023-03-24T15:17:07.430Z,6.15
2023-03-24T15:19:55.754Z,3.90
2023-03-24T15:22:43.414Z,4.68
2023-03-24T15:25:31.069Z,4.35
2023-03-24T15:28:24.830Z,2.28
2023-03-24T15:31:14.757Z,1.60
2023-03-24T15:34:35.973Z,1.48
2023-03-24T15:37:48.480Z,0.88
2023-03-24T15:40:39.657Z,1.15
2023-03-24T15:43:27.612Z,2.00
2023-03-24T15:46:30.526Z,1.50
2023-03-24T15:49:23.931Z,2.47
2023-03-24T15:52:23.510Z,1.55
2023-03-24T15:55:36.924Z,1.80
2023-03-24T15:58:28.636Z,2.35
2023-03-24T16:01:20.977Z,2.30
2023-03-24T16:04:15.990Z,2.25
2023-03-24T16:07:05.469Z,2.05
2023-03-24T16:10:05.227Z,2.30
2023-03-24T16:12:53.720Z,2.25
2023-03-24T16:15:56.842Z,2.75
2023-03-24T16:18:51.478Z,3.03
2023-03-24T16:21:39.087Z,2.40
2023-03-24T16:24:29.956Z,3.30
2023-03-24T16:27:17.892Z,3.05
2023-03-24T16:30:38.077Z,5.72
2023-03-24T16:33:33.018Z,5.80
2023-03-24T16:36:22.338Z,7.45
2023-03-24T16:39:21.830Z,18.52
2023-03-24T16:42:12.875Z,16.63
2023-03-24T16:45:00.533Z,17.25
2023-03-24T16:47:48.452Z,19.10
2023-03-24T16:50:45.615Z,26.73
2023-03-24T16:53:33.424Z,21.67
2023-03-24T16:56:23.168Z,13.90
2023-03-24T16:59:12.707Z,15.13
2023-03-24T17:02:06.208Z,25.45
2023-03-24T17:04:54.334Z,35.90
2023-03-24T17:07:43.023Z,128.90
2023-03-24T17:10:31.228Z,178.40
2023-03-24T17:13:21.995Z,95.68
2023-03-24T17:16:10.974Z,442.95
2023-03-24T17:18:58.758Z,225.30
2023-03-24T17:22:03.398Z,121.55
2023-03-24T17:24:57.767Z,100.55
2023-03-24T17:27:46.402Z,45.40
2023-03-24T17:30:34.195Z,45.75
2023-03-24T17:33:21.805Z,38.30
2023-03-24T17:36:17.230Z,31.63
2023-03-24T17:39:05.671Z,31.58
2023-03-24T17:41:57.754Z,35.42
2023-03-24T17:44:47.554Z,35.35
2023-03-24T17:47:35.682Z,53.70
2023-03-24T17:50:23.592Z,53.08
2023-03-24T17:53:13.903Z,48.28
2023-03-24T17:56:08.439Z,42.30
2023-03-24T17:58:58.898Z,42.97
2023-03-24T18:01:47.551Z,43.80
2023-03-24T18:04:35.271Z,49.15
2023-03-24T18:07:23.413Z,33.63
2023-03-24T18:10:11.356Z,28.45
2023-03-24T18:13:02.575Z,26.40
2023-03-24T18:15:50.412Z,31.17
2023-03-24T18:18:39.336Z,35.53
2023-03-24T18:21:26.998Z,35.58
2023-03-24T18:24:14.858Z,34.70
2023-03-24T18:27:04.003Z,26.55
2023-03-24T18:29:51.715Z,27.45
2023-03-24T18:32:40.500Z,28.25
2023-03-24T18:35:28.572Z,28.35
2023-03-24T18:38:22.236Z,30.73
2023-03-24T18:41:13.101Z,33.60
2023-03-24T18:44:01.025Z,30.60
2023-03-24T18:46:51.850Z,30.15
2023-03-24T18:49:42.575Z,31.75
2023-03-24T18:52:33.314Z,35.40
2023-03-24T18:55:22.071Z,32.35
2023-03-24T18:58:15.625Z,45.83
2023-03-24T19:01:12.463Z,53.30
2023-03-24T19:04:00.393Z,50.50
2023-03-24T19:06:50.551Z,49.78
2023-03-24T19:09:38.489Z,48.80
2023-03-24T19:12:26.427Z,48.75
2023-03-24T19:15:17.243Z,58.50
2023-03-24T19:18:05.107Z,46.95
2023-03-24T19:20:59.299Z,48.28
2023-03-24T19:23:47.286Z,46.67
2023-03-24T19:26:35.151Z,44.88
2023-03-24T19:29:22.820Z,43.25
2023-03-24T19:32:10.568Z,44.05
2023-03-24T19:34:58.319Z,43.35
2023-03-24T19:37:49.503Z,40.08
2023-03-24T19:40:37.297Z,34.47
2023-03-24T19:43:25.538Z,30.25
2023-03-24T19:46:13.255Z,32.05
2023-03-24T19:49:01.272Z,29.65
2023-03-24T19:51:51.157Z,28.58
2023-03-24T19:54:38.983Z,27.23
2023-03-24T19:57:27.543Z,36.55
2023-03-24T20:00:15.957Z,32.17
2023-03-24T20:03:03.725Z,33.42
2023-03-24T20:05:53.762Z,34.38
2023-03-24T20:08:41.603Z,38.80
2023-03-24T20:11:29.300Z,42.17
2023-03-24T20:14:18.640Z,36.53
2023-03-24T20:17:06.324Z,35.35
2023-03-24T20:19:54.497Z,35.92
2023-03-24T20:22:45.873Z,34.65
2023-03-24T20:25:33.572Z,31.15
2023-03-24T20:28:21.609Z,30.52
2023-03-24T20:31:11.156Z,28.95
2023-03-24T20:33:59.452Z,24.77
2023-03-24T20:36:47.095Z,25.55
2023-03-24T20:39:35.094Z,25.00
2023-03-24T20:42:25.411Z,22.42
2023-03-24T20:45:13.121Z,23.27
2023-03-24T20:48:00.784Z,23.35
2023-03-24T20:50:48.697Z,22.95
2023-03-24T20:53:36.923Z,24.42
2023-03-24T20:56:25.303Z,24.00
2023-03-24T20:59:14.007Z,28.35
2023-03-24T21:02:02.539Z,30.83
2023-03-24T21:04:50.162Z,28.50
2023-03-24T21:07:38.547Z,30.08
2023-03-24T21:10:26.244Z,28.85
2023-03-24T21:13:16.790Z,26.65
2023-03-24T21:16:09.774Z,27.00
2023-03-24T21:18:59.178Z,27.23
2023-03-24T21:21:49.720Z,27.52
2023-03-24T21:24:37.884Z,27.67
2023-03-24T21:27:36.655Z,24.50
2023-03-24T21:30:26.428Z,27.42
2023-03-24T21:33:17.076Z,25.92
2023-03-24T21:36:05.191Z,26.60
2023-03-24T21:38:54.335Z,27.92
2023-03-24T21:41:42.931Z,27.20
2023-03-24T21:44:30.662Z,26.38
2023-03-24T21:47:27.357Z,24.15
2023-03-24T21:50:19.310Z,23.80
2023-03-24T21:53:15.408Z,21.30
2023-03-24T21:56:06.117Z,17.92
2023-03-24T21:59:00.209Z,20.05
2023-03-24T22:01:47.952Z,19.48
2023-03-24T22:04:38.579Z,18.38
2023-03-24T22:07:26.198Z,18.80
2023-03-24T22:10:16.996Z,17.25
2023-03-24T22:13:05.224Z,16.33
2023-03-24T22:15:56.079Z,15.40
2023-03-24T22:18:43.775Z,16.48
2023-03-24T22:21:32.478Z,18.13
2023-03-24T22:24:20.079Z,18.70
2023-03-24T22:27:08.194Z,19.08
2023-03-24T22:29:55.973Z,18.60
2023-03-24T22:32:43.791Z,19.08
2023-03-24T22:35:31.696Z,18.20
2023-03-24T22:38:19.381Z,16.85
2023-03-24T22:41:10.981Z,17.80
2023-03-24T22:43:58.702Z,21.10
2023-03-24T22:46:46.431Z,18.02
2023-03-24T22:49:34.499Z,15.27
2023-03-24T22:52:22.116Z,14.30
2023-03-24T22:55:10.642Z,14.40
2023-03-24T22:58:00.824Z,15.13
2023-03-24T23:01:04.580Z,14.55
2023-03-24T23:03:55.228Z,13.27
2023-03-24T23:06:46.434Z,12.27
2023-03-24T23:09:34.481Z,14.63
2023-03-24T23:12:22.681Z,11.55
2023-03-24T23:15:14.337Z,13.93
2023-03-24T23:18:02.139Z,13.48
2023-03-24T23:20:50.254Z,13.88
2023-03-24T23:23:40.076Z,14.63
2023-03-24T23:26:30.233Z,14.00
2023-03-24T23:29:18.172Z,11.80
2023-03-24T23:32:06.872Z,14.50
2023-03-24T23:34:54.912Z,13.18
2023-03-24T23:37:42.963Z,14.15
2023-03-24T23:40:30.745Z,13.38
2023-03-24T23:43:18.368Z,12.02
2023-03-24T23:46:06.572Z,10.00
2023-03-24T23:48:54.469Z,8.50
2023-03-24T23:51:43.624Z,9.20
2023-03-24T23:54:32.458Z,9.45
2023-03-24T23:57:20.256Z,9.02
